createdAt,value
2024-02-24T00:02:07.513Z,18.83
2024-02-24T00:04:35.824Z,21.52
2024-02-24T00:07:03.685Z,22.58
2024-02-24T00:09:31.772Z,18.60
2024-02-24T00:12:00.729Z,16.02
2024-02-24T00:14:28.792Z,22.85
2024-02-24T00:16:56.741Z,15.60
2024-02-24T00:19:26.105Z,15.45
2024-02-24T00:21:53.946Z,14.63
2024-02-24T00:24:22.261Z,14.52
2024-02-24T00:26:50.145Z,14.27
2024-02-24T00:29:18.260Z,13.52
2024-02-24T00:31:45.931Z,14.63
2024-02-24T00:34:14.182Z,14.90
2024-02-24T00:36:42.301Z,19.42
2024-02-24T00:39:10.586Z,22.65
2024-02-24T00:41:38.390Z,25.00
2024-02-24T00:44:07.023Z,23.98
2024-02-24T00:46:34.811Z,25.43
2024-02-24T00:49:03.164Z,23.83
2024-02-24T00:51:30.830Z,23.38
2024-02-24T00:53:58.881Z,22.35
2024-02-24T00:56:26.764Z,22.40
2024-02-24T00:58:55.013Z,21.67
2024-02-24T01:01:22.701Z,22.38
2024-02-24T01:03:50.786Z,22.00
2024-02-24T01:06:18.457Z,20.83
2024-02-24T01:08:46.520Z,21.60
2024-02-24T01:11:14.457Z,24.07
2024-02-24T01:13:44.181Z,20.67
2024-02-24T01:16:11.844Z,20.73
2024-02-24T01:18:39.937Z,18.27
2024-02-24T01:21:07.625Z,17.27
2024-02-24T01:23:35.641Z,16.20
2024-02-24T01:26:04.141Z,16.35
2024-02-24T01:28:32.344Z,20.88
2024-02-24T01:30:59.953Z,20.88
2024-02-24T01:33:28.236Z,17.52
2024-02-24T01:35:56.449Z,19.33
2024-02-24T01:38:24.715Z,15.45
2024-02-24T01:40:52.362Z,18.55
2024-02-24T01:43:28.474Z,24.20
2024-02-24T01:45:57.053Z,18.60
2024-02-24T01:48:25.519Z,16.80
2024-02-24T01:50:54.565Z,16.65
2024-02-24T01:53:23.999Z,21.02
2024-02-24T01:55:52.751Z,21.60
2024-02-24T01:58:22.224Z,16.85
2024-02-24T02:00:50.158Z,17.07
2024-02-24T02:03:18.220Z,21.83
2024-02-24T02:05:46.032Z,24.27
2024-02-24T02:08:14.328Z,26.67
2024-02-24T02:10:50.387Z,27.38
2024-02-24T02:13:19.257Z,22.03
2024-02-24T02:15:50.615Z,19.48
2024-02-24T02:18:18.806Z,20.92
2024-02-24T02:20:56.951Z,20.77
2024-02-24T02:23:24.868Z,20.33
2024-02-24T02:25:52.525Z,24.20
2024-02-24T02:28:20.631Z,23.33
2024-02-24T02:30:48.197Z,19.17
2024-02-24T02:33:16.423Z,22.52
2024-02-24T02:35:44.577Z,21.98
2024-02-24T02:38:12.567Z,20.33
2024-02-24T02:40:40.164Z,19.33
2024-02-24T02:43:08.509Z,19.48
2024-02-24T02:45:36.106Z,20.40
2024-02-24T02:48:04.719Z,18.10
2024-02-24T02:50:32.501Z,18.93
2024-02-24T02:53:00.551Z,18.05
2024-02-24T02:55:28.094Z,21.73
2024-02-24T02:57:56.423Z,21.30
2024-02-24T03:00:23.931Z,20.85
2024-02-24T03:02:52.055Z,20.83
2024-02-24T03:05:20.213Z,20.00
2024-02-24T03:07:48.153Z,19.02
2024-02-24T03:10:15.961Z,18.13
2024-02-24T03:12:44.017Z,18.98
2024-02-24T03:15:11.858Z,19.73
2024-02-24T03:17:39.910Z,20.10
2024-02-24T03:20:10.352Z,18.90
2024-02-24T03:22:39.792Z,20.45
2024-02-24T03:25:07.691Z,17.13
2024-02-24T03:27:36.102Z,17.50
2024-02-24T03:30:03.892Z,18.98
2024-02-24T03:32:31.994Z,21.42
2024-02-24T03:34:59.664Z,20.25
2024-02-24T03:37:27.680Z,19.40
2024-02-24T03:39:55.331Z,19.07
2024-02-24T03:42:23.270Z,18.98
2024-02-24T03:44:50.918Z,19.67
2024-02-24T03:47:18.934Z,17.90
2024-02-24T03:49:46.573Z,18.27
2024-02-24T03:52:14.586Z,19.87
2024-02-24T03:54:42.407Z,17.80
2024-02-24T03:57:12.665Z,19.20
2024-02-24T03:59:40.483Z,19.10
2024-02-24T04:02:08.511Z,18.95
2024-02-24T04:04:36.204Z,18.30
2024-02-24T04:07:04.161Z,18.05
2024-02-24T04:09:31.943Z,17.77
2024-02-24T04:12:00.081Z,19.83
2024-02-24T04:14:27.872Z,16.98
2024-02-24T04:16:57.227Z,17.43
2024-02-24T04:19:25.472Z,18.45
2024-02-24T04:21:53.532Z,17.92
2024-02-24T04:24:21.403Z,17.30
2024-02-24T04:26:49.364Z,16.80
2024-02-24T04:29:17.135Z,16.83
2024-02-24T04:31:45.269Z,19.50
2024-02-24T04:34:12.870Z,17.75
2024-02-24T04:36:42.658Z,17.42
2024-02-24T04:39:10.752Z,16.80
2024-02-24T04:41:38.861Z,25.97
2024-02-24T04:44:06.695Z,29.63
2024-02-24T04:46:35.830Z,32.13
2024-02-24T04:49:03.695Z,24.30
2024-02-24T04:51:31.954Z,22.60
2024-02-24T04:53:59.606Z,24.17
2024-02-24T04:56:27.747Z,24.40
2024-02-24T04:58:55.572Z,22.80
2024-02-24T05:01:23.807Z,22.77
2024-02-24T05:03:51.496Z,27.58
2024-02-24T05:06:19.867Z,22.33
2024-02-24T05:08:47.622Z,20.23
2024-02-24T05:11:15.876Z,19.70
2024-02-24T05:13:44.895Z,19.98
2024-02-24T05:16:12.842Z,19.27
2024-02-24T05:18:40.561Z,19.03
2024-02-24T05:21:08.640Z,19.42
2024-02-24T05:23:36.803Z,18.23
2024-02-24T05:26:05.741Z,17.70
2024-02-24T05:28:33.438Z,17.15
2024-02-24T05:31:01.189Z,18.67
2024-02-24T05:33:29.501Z,17.88
2024-02-24T05:35:57.689Z,18.60
2024-02-24T05:42:37.872Z,16.10
2024-02-24T05:45:06.484Z,16.97
2024-02-24T05:48:50.079Z,18.13
2024-02-24T05:51:19.918Z,20.92
2024-02-24T05:53:47.853Z,20.23
2024-02-24T05:56:17.365Z,21.67
2024-02-24T05:58:45.040Z,21.13
2024-02-24T06:01:13.264Z,22.45
2024-02-24T06:03:41.416Z,23.88
2024-02-24T06:06:09.857Z,23.88
2024-02-24T06:08:39.766Z,26.65
2024-02-24T06:11:08.944Z,23.60
2024-02-24T06:13:54.094Z,24.98
2024-02-24T06:16:22.328Z,25.02
2024-02-24T06:19:16.201Z,24.48
2024-02-24T06:21:44.400Z,24.08
2024-02-24T06:24:11.964Z,25.90
2024-02-24T06:26:41.356Z,26.40
2024-02-24T06:29:09.469Z,29.52
2024-02-24T06:31:37.825Z,29.67
2024-02-24T06:34:08.358Z,34.58
2024-02-24T06:36:37.049Z,31.87
2024-02-24T06:39:04.817Z,34.75
2024-02-24T06:41:33.151Z,35.83
2024-02-24T06:44:01.201Z,33.03
2024-02-24T06:46:29.348Z,30.95
2024-02-24T06:48:57.371Z,30.93
2024-02-24T06:51:25.669Z,45.17
2024-02-24T06:53:57.333Z,48.22
2024-02-24T06:56:25.671Z,45.47
2024-02-24T06:58:55.739Z,41.05
2024-02-24T07:01:24.255Z,33.23
2024-02-24T07:07:20.040Z,21.83
2024-02-24T07:09:49.466Z,19.10
2024-02-24T07:12:17.337Z,21.73
2024-02-24T07:14:47.587Z,25.80
2024-02-24T07:17:15.456Z,24.85
2024-02-24T07:19:44.251Z,33.85
2024-02-24T07:22:16.468Z,33.33
2024-02-24T07:24:44.962Z,33.47
2024-02-24T07:27:12.870Z,31.73
2024-02-24T07:29:41.082Z,31.05
2024-02-24T07:32:08.994Z,29.60
2024-02-24T07:34:37.357Z,30.00
2024-02-24T07:37:05.550Z,30.48
2024-02-24T07:39:33.866Z,33.00
2024-02-24T07:42:01.681Z,53.90
2024-02-24T07:44:29.944Z,44.25
2024-02-24T07:46:57.683Z,39.63
2024-02-24T07:49:26.100Z,50.33
2024-02-24T07:51:53.923Z,54.77
2024-02-24T07:54:22.282Z,44.03
2024-02-24T07:56:50.261Z,44.75
2024-02-24T07:59:18.505Z,37.45
2024-02-24T08:01:46.224Z,41.97
2024-02-24T08:04:16.431Z,34.70
2024-02-24T08:06:44.561Z,37.10
2024-02-24T08:09:12.746Z,37.15
2024-02-24T08:11:43.538Z,38.72
2024-02-24T08:14:12.257Z,44.47
2024-02-24T08:16:40.768Z,76.60
2024-02-24T08:19:09.008Z,63.75
2024-02-24T08:21:39.437Z,58.17
2024-02-24T08:24:11.366Z,44.35
2024-02-24T08:26:41.541Z,39.38
2024-02-24T08:29:11.494Z,31.73
2024-02-24T08:31:40.458Z,29.17
2024-02-24T08:34:09.033Z,28.38
2024-02-24T08:36:37.360Z,33.45
2024-02-24T08:39:06.014Z,46.30
2024-02-24T08:41:35.109Z,52.77
2024-02-24T08:44:04.167Z,40.92
2024-02-24T08:46:32.444Z,37.35
2024-02-24T08:49:00.851Z,40.85
2024-02-24T08:51:28.922Z,47.95
2024-02-24T08:53:57.743Z,58.77
2024-02-24T08:56:26.671Z,48.42
2024-02-24T08:58:55.193Z,41.95
2024-02-24T09:01:23.135Z,41.80
2024-02-24T09:03:52.252Z,44.88
2024-02-24T09:06:20.367Z,45.97
2024-02-24T09:08:48.703Z,44.35
2024-02-24T09:11:16.805Z,54.08
2024-02-24T09:13:48.760Z,40.00
2024-02-24T09:16:18.508Z,41.03
2024-02-24T09:18:46.920Z,43.47
2024-02-24T09:21:15.088Z,52.88
2024-02-24T09:23:43.273Z,48.35
2024-02-24T09:26:11.076Z,51.05
2024-02-24T09:28:40.241Z,54.47
2024-02-24T09:31:07.946Z,58.03
2024-02-24T09:33:37.475Z,76.63
2024-02-24T09:36:06.225Z,84.45
2024-02-24T09:38:34.704Z,114.00
2024-02-24T09:41:02.736Z,117.35
2024-02-24T09:43:31.007Z,91.77
2024-02-24T09:45:59.415Z,70.80
2024-02-24T09:48:29.911Z,40.75
2024-02-24T09:51:02.128Z,32.08
2024-02-24T09:53:30.772Z,23.50
2024-02-24T09:56:00.114Z,19.97
2024-02-24T09:58:34.526Z,20.70
2024-02-24T10:01:02.616Z,24.42
2024-02-24T10:03:31.666Z,23.20
2024-02-24T10:05:59.545Z,25.75
2024-02-24T10:08:27.746Z,19.10
2024-02-24T10:10:56.798Z,17.52
2024-02-24T10:13:25.446Z,17.67
2024-02-24T10:15:53.449Z,17.63
2024-02-24T10:18:22.972Z,18.63
2024-02-24T10:20:53.038Z,19.30
2024-02-24T10:23:21.549Z,19.58
2024-02-24T10:25:49.469Z,66.93
2024-02-24T10:28:21.896Z,23.67
2024-02-24T10:30:50.535Z,28.58
2024-02-24T10:33:54.821Z,19.10
2024-02-24T10:36:23.436Z,25.20
2024-02-24T10:38:55.765Z,31.17
2024-02-24T10:41:26.944Z,41.07
2024-02-24T10:44:09.778Z,43.85
2024-02-24T10:46:43.618Z,84.60
2024-02-24T10:49:13.126Z,48.80
2024-02-24T10:51:47.683Z,18.05
2024-02-24T10:54:21.302Z,18.23
2024-02-24T10:56:57.529Z,29.40
2024-02-24T10:59:30.023Z,18.23
2024-02-24T11:02:06.102Z,19.23
2024-02-24T11:04:38.476Z,20.15
2024-02-24T11:07:08.553Z,21.77
2024-02-24T11:09:41.274Z,20.30
2024-02-24T11:12:09.623Z,23.23
2024-02-24T11:14:42.674Z,21.05
2024-02-24T11:17:12.814Z,16.30
2024-02-24T11:19:50.329Z,12.80
2024-02-24T11:22:20.701Z,11.77
2024-02-24T11:25:05.383Z,14.25
2024-02-24T11:27:42.331Z,13.20
2024-02-24T11:30:36.047Z,15.02
2024-02-24T11:33:30.427Z,14.40
2024-02-24T11:36:02.095Z,15.52
2024-02-24T11:38:33.119Z,25.63
2024-02-24T11:41:09.368Z,13.45
2024-02-24T11:43:47.159Z,7.97
2024-02-24T11:46:15.293Z,2.77
2024-02-24T11:48:43.563Z,3.05
2024-02-24T11:51:13.628Z,4.43
2024-02-24T11:53:42.641Z,4.10
2024-02-24T11:56:16.802Z,10.38
2024-02-24T11:58:46.693Z,15.50
2024-02-24T12:01:16.672Z,13.95
2024-02-24T12:03:59.252Z,13.05
2024-02-24T12:06:28.986Z,10.18
2024-02-24T12:09:00.885Z,10.75
2024-02-24T12:11:29.490Z,4.30
2024-02-24T12:13:58.301Z,8.35
2024-02-24T12:16:26.813Z,2.78
2024-02-24T12:18:58.446Z,2.47
2024-02-24T12:21:29.783Z,2.83
2024-02-24T12:23:59.075Z,6.53
2024-02-24T12:26:29.727Z,9.82
2024-02-24T12:28:57.987Z,4.80
2024-02-24T12:31:26.125Z,4.10
2024-02-24T12:33:56.171Z,6.05
2024-02-24T12:36:27.516Z,4.20
2024-02-24T12:38:56.525Z,2.13
2024-02-24T12:41:27.833Z,3.00
2024-02-24T12:43:56.954Z,4.88
2024-02-24T12:46:34.718Z,2.55
2024-02-24T12:49:04.046Z,2.53
2024-02-24T12:51:31.905Z,45.45
2024-02-24T12:54:03.027Z,28.00
2024-02-24T12:56:32.911Z,35.03
2024-02-24T12:59:03.366Z,11.48
2024-02-24T13:01:34.650Z,5.93
2024-02-24T13:04:02.997Z,14.60
2024-02-24T13:06:31.014Z,7.13
2024-02-24T13:08:59.577Z,16.38
2024-02-24T13:11:28.919Z,30.48
2024-02-24T13:14:00.320Z,21.63
2024-02-24T13:16:28.572Z,42.03
2024-02-24T13:18:56.696Z,18.55
2024-02-24T13:21:25.693Z,25.23
2024-02-24T13:23:54.759Z,21.02
2024-02-24T13:26:24.461Z,19.13
2024-02-24T13:28:53.120Z,4.22
2024-02-24T13:31:23.140Z,2.40
2024-02-24T13:33:56.897Z,1.63
2024-02-24T13:36:26.349Z,1.80
2024-02-24T13:38:56.231Z,1.63
2024-02-24T13:41:24.467Z,1.50
2024-02-24T13:43:53.204Z,2.60
2024-02-24T13:46:21.069Z,1.60
2024-02-24T13:48:49.433Z,1.38
2024-02-24T13:51:17.344Z,1.23
2024-02-24T13:53:45.595Z,1.95
2024-02-24T13:56:13.725Z,2.10
2024-02-24T13:58:41.985Z,4.10
2024-02-24T14:01:12.499Z,4.72
2024-02-24T14:03:41.376Z,1.73
2024-02-24T14:06:09.566Z,1.58
2024-02-24T14:08:37.991Z,2.60
2024-02-24T14:11:08.001Z,2.25
2024-02-24T14:13:37.424Z,1.55
2024-02-24T14:16:05.708Z,2.37
2024-02-24T14:18:34.137Z,4.07
2024-02-24T14:21:02.356Z,4.60
2024-02-24T14:23:30.602Z,5.13
2024-02-24T14:26:02.680Z,4.38
2024-02-24T14:28:33.232Z,5.73
2024-02-24T14:31:01.144Z,5.72
2024-02-24T14:33:29.450Z,3.97
2024-02-24T14:35:57.645Z,4.38
2024-02-24T14:38:25.960Z,5.20
2024-02-24T14:40:56.115Z,5.17
2024-02-24T14:43:24.358Z,5.68
2024-02-24T14:45:52.071Z,5.20
2024-02-24T14:48:20.195Z,5.85
2024-02-24T14:50:49.303Z,5.43
2024-02-24T14:53:17.384Z,6.43
2024-02-24T14:55:45.350Z,6.25
2024-02-24T14:58:14.057Z,5.85
2024-02-24T15:00:42.187Z,15.93
2024-02-24T15:03:11.629Z,14.80
2024-02-24T15:05:40.327Z,9.07
2024-02-24T15:08:08.492Z,53.10
2024-02-24T15:10:36.729Z,13.13
2024-02-24T15:13:05.525Z,11.18
2024-02-24T15:15:33.699Z,23.00
2024-02-24T15:18:04.820Z,11.43
2024-02-24T15:20:33.266Z,6.50
2024-02-24T15:23:01.465Z,6.32
2024-02-24T15:25:34.253Z,7.03
2024-02-24T15:28:28.021Z,25.90
2024-02-24T15:30:55.904Z,62.60
2024-02-24T15:33:24.158Z,11.32
2024-02-24T15:35:52.070Z,5.85
2024-02-24T15:38:20.760Z,6.20
2024-02-24T15:40:48.817Z,15.02
2024-02-24T15:43:17.314Z,7.53
2024-02-24T15:45:45.295Z,8.55
2024-02-24T15:48:13.888Z,9.25
2024-02-24T15:50:42.724Z,6.05
2024-02-24T15:53:14.883Z,16.02
2024-02-24T15:55:47.189Z,14.77
2024-02-24T15:58:15.971Z,8.48
2024-02-24T16:00:47.211Z,7.75
2024-02-24T16:03:19.782Z,10.60
2024-02-24T16:05:50.673Z,15.10
2024-02-24T16:08:25.198Z,9.63
2024-02-24T16:10:56.411Z,11.20
2024-02-24T16:13:28.015Z,8.40
2024-02-24T16:16:00.435Z,7.00
2024-02-24T16:18:30.100Z,7.15
2024-02-24T16:20:58.253Z,5.40
2024-02-24T16:23:34.986Z,56.83
2024-02-24T16:26:06.143Z,14.25
2024-02-24T16:28:40.082Z,12.05
2024-02-24T16:31:10.888Z,17.40
2024-02-24T16:33:39.721Z,12.83
2024-02-24T16:36:09.163Z,5.20
2024-02-24T16:38:37.553Z,7.10
2024-02-24T16:41:05.669Z,12.55
2024-02-24T16:43:36.827Z,19.80
2024-02-24T16:46:18.641Z,16.57
2024-02-24T16:48:54.730Z,18.20
2024-02-24T16:51:23.278Z,20.55
2024-02-24T16:53:51.392Z,23.45
2024-02-24T16:56:19.281Z,42.10
2024-02-24T16:58:48.452Z,44.43
2024-02-24T17:01:20.344Z,29.80
2024-02-24T17:03:48.761Z,54.03
2024-02-24T17:06:17.042Z,38.80
2024-02-24T17:08:46.539Z,36.33
2024-02-24T17:11:21.885Z,23.27
2024-02-24T17:13:50.924Z,21.77
2024-02-24T17:16:18.579Z,13.73
2024-02-24T17:18:47.392Z,12.90
2024-02-24T17:21:15.778Z,11.57
2024-02-24T17:23:45.828Z,10.40
2024-02-24T17:26:18.293Z,9.20
2024-02-24T17:28:49.658Z,8.15
2024-02-24T17:31:17.834Z,9.18
2024-02-24T17:33:49.031Z,9.45
2024-02-24T17:36:26.149Z,8.27
2024-02-24T17:39:02.854Z,6.60
2024-02-24T17:41:39.922Z,7.57
2024-02-24T17:44:19.262Z,9.35
2024-02-24T17:46:50.149Z,8.43
2024-02-24T17:49:26.449Z,11.93
2024-02-24T17:55:03.382Z,13.00
2024-02-24T17:57:35.486Z,15.50
2024-02-24T18:00:15.230Z,18.42
2024-02-24T18:02:47.121Z,45.40
2024-02-24T18:05:19.534Z,16.77
2024-02-24T18:07:51.930Z,9.60
2024-02-24T18:10:22.768Z,7.90
2024-02-24T18:12:55.877Z,8.55
2024-02-24T18:15:25.310Z,13.57
2024-02-24T18:17:55.404Z,14.60
2024-02-24T18:20:23.900Z,14.15
2024-02-24T18:22:51.536Z,7.70
2024-02-24T18:25:19.601Z,5.30
2024-02-24T18:27:48.150Z,16.87
2024-02-24T18:30:16.405Z,17.48
2024-02-24T18:32:44.378Z,15.75
2024-02-24T18:35:13.052Z,15.75
2024-02-24T18:37:45.142Z,13.50
2024-02-24T18:40:18.560Z,17.43
2024-02-24T18:42:48.244Z,18.48
2024-02-24T18:45:18.517Z,15.23
2024-02-24T18:47:46.331Z,11.85
2024-02-24T18:50:14.730Z,9.82
2024-02-24T18:52:45.011Z,9.03
2024-02-24T18:55:13.082Z,9.18
2024-02-24T18:57:41.162Z,9.13
2024-02-24T19:00:12.512Z,8.82
2024-02-24T19:02:44.039Z,9.15
2024-02-24T19:05:19.654Z,8.40
2024-02-24T19:07:51.801Z,9.68
2024-02-24T19:10:20.022Z,10.65
2024-02-24T19:12:48.718Z,15.45
2024-02-24T19:15:17.065Z,11.75
2024-02-24T19:17:44.919Z,6.50
2024-02-24T19:20:12.987Z,5.82
2024-02-24T19:22:40.551Z,7.45
2024-02-24T19:25:09.443Z,34.63
2024-02-24T19:27:38.076Z,42.20
2024-02-24T19:30:08.688Z,30.67
2024-02-24T19:32:44.971Z,18.45
2024-02-24T19:35:19.074Z,14.25
2024-02-24T19:37:48.259Z,13.05
2024-02-24T19:40:16.805Z,13.05
2024-02-24T19:42:46.397Z,14.47
2024-02-24T19:45:17.632Z,11.93
2024-02-24T19:47:48.349Z,12.95
2024-02-24T19:50:19.240Z,14.70
2024-02-24T19:52:51.065Z,13.00
2024-02-24T19:55:22.807Z,12.30
2024-02-24T19:57:53.765Z,12.73
2024-02-24T20:00:25.585Z,14.82
2024-02-24T20:02:54.388Z,16.77
2024-02-24T20:05:23.163Z,14.40
2024-02-24T20:07:56.702Z,12.90
2024-02-24T20:10:30.687Z,10.45
2024-02-24T20:12:58.961Z,9.65
2024-02-24T20:15:27.020Z,8.40
2024-02-24T20:17:55.574Z,6.55
2024-02-24T20:20:24.854Z,7.60
2024-02-24T20:22:52.772Z,7.72
2024-02-24T20:25:20.772Z,8.52
2024-02-24T20:27:48.474Z,7.10
2024-02-24T20:30:20.723Z,8.02
2024-02-24T20:32:53.617Z,11.63
2024-02-24T20:35:24.284Z,10.40
2024-02-24T20:37:52.395Z,9.35
2024-02-24T20:40:20.722Z,8.60
2024-02-24T20:42:48.552Z,6.68
2024-02-24T20:45:16.913Z,5.67
2024-02-24T20:47:44.882Z,5.25
2024-02-24T20:50:13.374Z,6.13
2024-02-24T20:52:41.621Z,7.63
2024-02-24T20:55:09.678Z,12.18
2024-02-24T20:57:39.170Z,13.60
2024-02-24T21:00:08.344Z,13.65
2024-02-24T21:02:37.908Z,14.82
2024-02-24T21:05:08.317Z,12.82
2024-02-24T21:07:36.785Z,12.63
2024-02-24T21:10:04.893Z,13.63
2024-02-24T21:12:32.993Z,12.18
2024-02-24T21:15:01.188Z,11.43
2024-02-24T21:17:29.018Z,13.13
2024-02-24T21:20:06.428Z,11.95
2024-02-24T21:22:35.477Z,15.07
2024-02-24T21:25:07.277Z,12.30
2024-02-24T21:27:34.978Z,15.65
2024-02-24T21:30:04.455Z,12.25
2024-02-24T21:32:33.453Z,11.77
2024-02-24T21:35:01.374Z,10.53
2024-02-24T21:37:29.542Z,11.02
2024-02-24T21:39:57.782Z,11.25
2024-02-24T21:42:26.820Z,11.80
2024-02-24T21:44:57.437Z,11.00
2024-02-24T21:47:26.028Z,12.73
2024-02-24T21:49:54.448Z,13.40
2024-02-24T21:52:22.041Z,12.88
2024-02-24T21:54:50.180Z,12.93
2024-02-24T21:57:18.025Z,18.45
2024-02-24T21:59:45.925Z,25.87
2024-02-24T22:02:14.363Z,14.43
2024-02-24T22:04:42.331Z,13.95
2024-02-24T22:07:10.087Z,15.85
2024-02-24T22:09:38.383Z,16.30
2024-02-24T22:12:06.503Z,16.13
2024-02-24T22:14:34.612Z,16.00
2024-02-24T22:17:02.448Z,30.00
2024-02-24T22:19:32.988Z,22.88
2024-02-24T22:22:00.900Z,20.45
2024-02-24T22:24:28.942Z,19.53
2024-02-24T22:26:57.010Z,26.88
2024-02-24T22:29:25.271Z,19.45
2024-02-24T22:31:53.114Z,17.35
2024-02-24T22:34:21.606Z,15.32
2024-02-24T22:36:53.201Z,14.00
2024-02-24T22:39:21.343Z,13.45
2024-02-24T22:41:49.137Z,15.43
2024-02-24T22:44:17.534Z,13.80
2024-02-24T22:46:45.207Z,16.40
2024-02-24T22:49:13.511Z,20.53
2024-02-24T22:51:42.120Z,21.25
2024-02-24T22:54:10.369Z,20.55
2024-02-24T22:56:38.140Z,15.38
2024-02-24T22:59:06.338Z,12.55
2024-02-24T23:01:34.158Z,12.55
2024-02-24T23:04:02.779Z,12.65
2024-02-24T23:06:31.278Z,12.30
2024-02-24T23:08:59.950Z,12.85
2024-02-24T23:11:33.244Z,11.63
2024-02-24T23:14:10.442Z,8.07
2024-02-24T23:16:38.801Z,8.40
2024-02-24T23:19:07.002Z,6.18
2024-02-24T23:21:36.950Z,7.45
2024-02-24T23:24:05.382Z,7.63
2024-02-24T23:26:33.516Z,7.27
2024-02-24T23:29:04.568Z,8.32
2024-02-24T23:31:32.502Z,8.52
2024-02-24T23:34:01.717Z,11.07
2024-02-24T23:36:29.762Z,9.07
2024-02-24T23:38:58.227Z,9.63
2024-02-24T23:41:26.910Z,11.00
2024-02-24T23:43:55.102Z,11.77
2024-02-24T23:46:22.962Z,12.95
2024-02-24T23:48:51.270Z,13.90
2024-02-24T23:51:19.126Z,13.20
2024-02-24T23:53:47.260Z,13.32
2024-02-24T23:56:25.273Z,12.50
2024-02-24T23:58:53.594Z,10.88
